createdAt,value
2023-10-23T00:02:12.876Z,80.15
2023-10-23T00:04:35.981Z,80.16
2023-10-23T00:06:57.888Z,79.99
2023-10-23T00:09:19.709Z,80.17
2023-10-23T00:11:41.544Z,79.74
2023-10-23T00:14:03.639Z,79.99
2023-10-23T00:16:25.568Z,80.08
2023-10-23T00:18:47.582Z,80.15
2023-10-23T00:21:09.654Z,79.90
2023-10-23T00:23:31.425Z,79.81
2023-10-23T00:25:53.162Z,80.03
2023-10-23T00:28:14.904Z,79.92
2023-10-23T00:30:37.511Z,79.72
2023-10-23T00:32:59.362Z,79.95
2023-10-23T00:35:21.199Z,79.91
2023-10-23T00:37:43.706Z,79.78
2023-10-23T00:40:06.888Z,79.77
2023-10-23T00:42:29.053Z,79.93
2023-10-23T00:44:52.460Z,80.04
2023-10-23T00:47:17.771Z,79.62
2023-10-23T00:49:40.229Z,79.61
2023-10-23T00:52:03.007Z,79.87
2023-10-23T00:54:25.834Z,79.79
2023-10-23T00:56:48.749Z,79.55
2023-10-23T00:59:11.416Z,79.38
2023-10-23T01:01:34.340Z,79.51
2023-10-23T01:03:56.110Z,79.67
2023-10-23T01:06:17.943Z,79.75
2023-10-23T01:08:40.741Z,79.94
2023-10-23T01:11:02.581Z,80.19
2023-10-23T01:13:26.640Z,80.33
2023-10-23T01:15:48.381Z,79.89
2023-10-23T01:18:10.194Z,80.37
2023-10-23T01:20:33.705Z,79.86
2023-10-23T01:22:59.628Z,80.07
2023-10-23T01:25:21.313Z,79.49
2023-10-23T01:27:44.078Z,79.78
2023-10-23T01:30:07.320Z,79.87
2023-10-23T01:32:29.819Z,80.18
2023-10-23T01:34:51.651Z,79.98
2023-10-23T01:37:13.393Z,80.03
2023-10-23T01:39:35.202Z,80.03
2023-10-23T01:41:56.952Z,79.88
2023-10-23T01:44:18.691Z,80.37
2023-10-23T01:46:40.468Z,80.29
2023-10-23T01:49:02.228Z,80.06
2023-10-23T01:51:23.984Z,80.01
2023-10-23T01:53:46.464Z,80.01
2023-10-23T01:56:09.568Z,79.98
2023-10-23T01:58:32.286Z,80.15
2023-10-23T02:00:54.088Z,80.29
2023-10-23T02:03:15.930Z,80.19
2023-10-23T02:05:37.749Z,80.41
2023-10-23T02:08:03.574Z,80.00
2023-10-23T02:10:25.416Z,80.11
2023-10-23T02:12:47.130Z,80.29
2023-10-23T02:15:11.389Z,79.78
2023-10-23T02:17:33.268Z,80.03
2023-10-23T02:19:55.113Z,80.26
2023-10-23T02:22:19.705Z,80.55
2023-10-23T02:24:42.257Z,80.47
2023-10-23T02:27:04.285Z,80.86
2023-10-23T02:29:27.551Z,80.49
2023-10-23T02:31:50.107Z,80.69
2023-10-23T02:34:12.163Z,80.84
2023-10-23T02:36:34.442Z,80.86
2023-10-23T02:38:56.308Z,80.76
2023-10-23T02:41:18.032Z,80.48
2023-10-23T02:43:39.696Z,80.71
2023-10-23T02:46:02.908Z,80.73
2023-10-23T02:48:24.750Z,81.18
2023-10-23T02:50:56.832Z,81.07
2023-10-23T02:53:18.559Z,81.02
2023-10-23T02:55:41.714Z,80.75
2023-10-23T02:58:03.443Z,80.70
2023-10-23T03:00:25.395Z,80.95
2023-10-23T03:02:47.219Z,81.13
2023-10-23T03:05:09.175Z,80.83
2023-10-23T03:07:30.920Z,81.25
2023-10-23T03:09:53.198Z,81.07
2023-10-23T03:12:14.973Z,80.86
2023-10-23T03:14:36.681Z,81.04
2023-10-23T03:16:59.036Z,80.94
2023-10-23T03:19:23.593Z,80.99
2023-10-23T03:21:45.279Z,81.04
2023-10-23T03:24:07.872Z,81.06
2023-10-23T03:26:30.056Z,80.99
2023-10-23T03:28:52.329Z,81.10
2023-10-23T03:31:14.019Z,81.15
2023-10-23T03:33:35.755Z,81.22
2023-10-23T03:35:57.727Z,81.21
2023-10-23T03:38:19.467Z,81.13
2023-10-23T03:40:41.145Z,81.09
2023-10-23T03:43:03.017Z,81.15
2023-10-23T03:45:24.828Z,81.11
2023-10-23T03:47:46.535Z,81.26
2023-10-23T03:50:08.796Z,81.29
2023-10-23T03:52:31.569Z,81.10
2023-10-23T03:54:53.264Z,81.37
2023-10-23T03:57:14.993Z,81.23
2023-10-23T03:59:37.759Z,81.39
2023-10-23T04:01:59.584Z,81.32
2023-10-23T04:04:21.422Z,81.09
2023-10-23T04:06:43.238Z,81.29
2023-10-23T04:09:04.962Z,81.41
2023-10-23T04:11:27.604Z,81.40
2023-10-23T04:13:49.578Z,81.42
2023-10-23T04:16:11.532Z,81.39
2023-10-23T04:18:33.389Z,81.73
2023-10-23T04:21:13.164Z,81.44
2023-10-23T04:23:39.086Z,81.15
2023-10-23T04:26:01.151Z,81.52
2023-10-23T04:28:23.863Z,81.40
2023-10-23T04:30:45.592Z,81.30
2023-10-23T04:33:07.329Z,81.49
2023-10-23T04:35:29.942Z,81.51
2023-10-23T04:37:51.697Z,81.23
2023-10-23T04:40:14.055Z,81.40
2023-10-23T04:42:35.849Z,81.43
2023-10-23T04:44:57.599Z,81.22
2023-10-23T04:47:19.323Z,81.21
2023-10-23T04:49:41.471Z,81.30
2023-10-23T04:52:03.709Z,81.29
2023-10-23T04:54:25.448Z,81.12
2023-10-23T04:56:47.855Z,81.27
2023-10-23T04:59:09.977Z,81.05
2023-10-23T05:01:31.775Z,81.60
2023-10-23T05:03:54.564Z,81.22
2023-10-23T05:06:16.458Z,81.42
2023-10-23T05:08:38.177Z,81.44
2023-10-23T05:11:10.662Z,81.61
2023-10-23T05:13:33.482Z,81.53
2023-10-23T05:15:55.340Z,81.22
2023-10-23T05:18:17.058Z,81.55
2023-10-23T05:20:38.755Z,81.20
2023-10-23T05:23:00.477Z,81.37
2023-10-23T05:25:22.172Z,81.18
2023-10-23T05:27:43.997Z,81.56
2023-10-23T05:30:08.019Z,81.41
2023-10-23T05:32:29.803Z,81.32
2023-10-23T05:34:51.611Z,81.11
2023-10-23T05:37:13.900Z,81.26
2023-10-23T05:39:36.491Z,81.48
2023-10-23T05:41:58.312Z,81.39
2023-10-23T05:44:20.117Z,81.54
2023-10-23T05:46:42.754Z,81.55
2023-10-23T05:49:04.564Z,81.82
2023-10-23T05:51:26.372Z,81.49
2023-10-23T05:53:48.163Z,81.73
2023-10-23T05:56:09.928Z,81.55
2023-10-23T05:58:32.899Z,81.74
2023-10-23T06:00:54.838Z,81.90
2023-10-23T06:03:16.766Z,81.79
2023-10-23T06:05:42.869Z,81.86
2023-10-23T06:08:05.242Z,81.83
2023-10-23T06:10:27.058Z,81.88
2023-10-23T06:12:48.801Z,82.09
2023-10-23T06:15:11.375Z,82.12
2023-10-23T06:17:33.270Z,81.82
2023-10-23T06:19:55.074Z,82.29
2023-10-23T06:22:16.961Z,82.05
2023-10-23T06:24:38.738Z,82.22
2023-10-23T06:27:00.779Z,82.31
2023-10-23T06:29:22.527Z,82.06
2023-10-23T06:31:44.412Z,82.02
2023-10-23T06:34:06.151Z,82.14
2023-10-23T06:36:27.963Z,82.27
2023-10-23T06:38:49.751Z,82.29
2023-10-23T06:41:11.494Z,82.57
2023-10-23T06:43:35.034Z,82.74
2023-10-23T06:46:02.357Z,82.40
2023-10-23T06:48:24.672Z,82.46
2023-10-23T06:50:51.135Z,82.62
2023-10-23T06:53:12.889Z,82.64
2023-10-23T06:55:34.646Z,82.60
2023-10-23T06:57:56.427Z,82.58
2023-10-23T07:00:18.448Z,82.79
2023-10-23T07:02:40.280Z,82.75
2023-10-23T07:05:02.994Z,82.68
2023-10-23T07:07:30.026Z,82.78
2023-10-23T07:09:54.534Z,82.67
2023-10-23T07:12:17.528Z,82.63
2023-10-23T07:14:39.621Z,82.59
2023-10-23T07:17:01.420Z,82.72
2023-10-23T07:19:23.208Z,82.87
2023-10-23T07:21:44.901Z,83.03
2023-10-23T07:24:07.394Z,83.00
2023-10-23T07:26:29.115Z,82.94
2023-10-23T07:28:51.456Z,83.09
2023-10-23T07:31:14.517Z,83.14
2023-10-23T07:33:36.540Z,83.03
2023-10-23T07:36:16.450Z,83.58
2023-10-23T07:38:44.961Z,83.70
2023-10-23T07:41:06.728Z,83.66
2023-10-23T07:43:30.346Z,83.49
2023-10-23T07:45:57.286Z,83.62
2023-10-23T07:48:28.592Z,83.69
2023-10-23T07:50:51.277Z,83.71
2023-10-23T07:53:13.137Z,83.99
2023-10-23T07:55:38.100Z,84.04
2023-10-23T07:57:59.937Z,83.91
2023-10-23T08:00:22.488Z,84.17
2023-10-23T08:02:44.317Z,84.20
2023-10-23T08:05:06.518Z,84.47
2023-10-23T08:07:29.334Z,84.16
2023-10-23T08:09:51.089Z,84.38
2023-10-23T08:12:14.559Z,84.48
2023-10-23T08:14:36.677Z,84.61
2023-10-23T08:16:58.473Z,84.55
2023-10-23T08:19:21.493Z,84.58
2023-10-23T08:21:43.350Z,85.01
2023-10-23T08:24:05.860Z,85.19
2023-10-23T08:26:27.702Z,85.19
2023-10-23T08:29:01.905Z,85.08
2023-10-23T08:31:38.625Z,85.37
2023-10-23T08:34:02.885Z,85.45
2023-10-23T08:36:24.889Z,85.45
2023-10-23T08:38:46.776Z,85.41
2023-10-23T08:41:13.472Z,85.56
2023-10-23T08:43:35.195Z,85.80
2023-10-23T08:46:03.713Z,86.05
2023-10-23T08:48:25.641Z,85.76
2023-10-23T08:50:48.159Z,85.47
2023-10-23T08:53:12.555Z,85.45
2023-10-23T08:55:34.565Z,85.32
2023-10-23T08:58:00.802Z,85.37
2023-10-23T09:00:24.012Z,85.73
2023-10-23T09:02:51.633Z,85.56
2023-10-23T09:05:14.357Z,85.48
2023-10-23T09:07:36.645Z,85.16
2023-10-23T09:10:05.877Z,85.49
2023-10-23T09:12:36.990Z,85.57
2023-10-23T09:15:12.659Z,85.38
2023-10-23T09:17:34.404Z,85.25
2023-10-23T09:19:56.258Z,84.80
2023-10-23T09:22:18.091Z,84.35
2023-10-23T09:24:40.090Z,84.39
2023-10-23T09:27:01.923Z,84.04
2023-10-23T09:29:28.974Z,83.92
2023-10-23T09:31:53.033Z,83.85
2023-10-23T09:34:15.125Z,83.50
2023-10-23T09:36:36.943Z,83.29
2023-10-23T09:39:01.753Z,83.39
2023-10-23T09:41:23.517Z,83.14
2023-10-23T09:43:46.648Z,82.57
2023-10-23T09:46:12.897Z,82.51
2023-10-23T09:48:35.025Z,82.41
2023-10-23T09:51:00.753Z,82.12
2023-10-23T09:53:22.859Z,81.66
2023-10-23T09:55:46.823Z,81.49
2023-10-23T09:58:17.840Z,81.24
2023-10-23T10:00:41.275Z,81.31
2023-10-23T10:03:12.604Z,81.05
2023-10-23T10:05:47.226Z,80.66
2023-10-23T10:08:14.821Z,80.40
2023-10-23T10:10:40.849Z,80.40
2023-10-23T10:13:04.572Z,80.14
2023-10-23T10:15:27.844Z,79.79
2023-10-23T10:17:51.150Z,79.70
2023-10-23T10:20:13.260Z,79.42
2023-10-23T10:22:39.519Z,79.38
2023-10-23T10:25:01.701Z,78.68
2023-10-23T10:27:24.512Z,78.44
2023-10-23T10:29:47.895Z,78.54
2023-10-23T10:32:12.946Z,77.75
2023-10-23T10:34:55.666Z,77.59
2023-10-23T10:37:26.209Z,77.70
2023-10-23T10:39:49.386Z,77.69
2023-10-23T10:42:40.634Z,77.32
2023-10-23T10:45:11.092Z,77.37
2023-10-23T10:47:50.613Z,76.74
2023-10-23T10:50:13.250Z,76.53
2023-10-23T10:52:37.937Z,76.49
2023-10-23T10:55:02.166Z,76.25
2023-10-23T10:57:24.056Z,76.42
2023-10-23T10:59:45.745Z,75.92
2023-10-23T11:02:09.349Z,75.92
2023-10-23T11:04:35.160Z,75.33
2023-10-23T11:06:57.034Z,75.36
2023-10-23T11:09:21.922Z,75.05
2023-10-23T11:11:43.790Z,75.07
2023-10-23T11:14:05.928Z,74.68
2023-10-23T11:16:28.566Z,74.98
2023-10-23T11:18:50.426Z,74.45
2023-10-23T11:21:12.142Z,74.28
2023-10-23T11:23:33.913Z,74.06
2023-10-23T11:25:56.154Z,74.17
2023-10-23T11:28:19.251Z,74.10
2023-10-23T11:30:51.176Z,73.93
2023-10-23T11:33:15.049Z,73.93
2023-10-23T11:35:36.776Z,73.84
2023-10-23T11:37:58.534Z,73.72
2023-10-23T11:40:22.406Z,73.49
2023-10-23T11:42:50.244Z,73.60
2023-10-23T11:45:12.524Z,73.35
2023-10-23T11:47:34.303Z,73.56
2023-10-23T11:49:56.123Z,73.88
2023-10-23T11:52:17.992Z,73.75
2023-10-23T11:54:40.226Z,73.58
2023-10-23T11:57:01.891Z,72.87
2023-10-23T11:59:23.949Z,72.50
2023-10-23T12:01:47.130Z,72.23
2023-10-23T12:04:09.365Z,72.26
2023-10-23T12:06:31.297Z,72.47
2023-10-23T12:08:52.983Z,72.76
2023-10-23T12:11:14.911Z,72.84
2023-10-23T12:13:36.957Z,72.60
2023-10-23T12:15:58.719Z,72.24
2023-10-23T12:18:23.378Z,72.44
2023-10-23T12:20:45.184Z,72.52
2023-10-23T12:23:07.345Z,72.44
2023-10-23T12:25:29.144Z,71.98
2023-10-23T12:27:51.085Z,71.97
2023-10-23T12:30:16.862Z,72.07
2023-10-23T12:33:15.261Z,72.20
2023-10-23T12:35:31.605Z,71.89
2023-10-23T12:37:53.379Z,71.74
2023-10-23T12:40:15.203Z,71.85
2023-10-23T12:42:36.983Z,72.14
2023-10-23T12:44:58.676Z,72.11
2023-10-23T12:47:20.495Z,72.26
2023-10-23T12:49:43.554Z,72.38
2023-10-23T12:52:06.165Z,72.20
2023-10-23T12:54:28.121Z,72.51
2023-10-23T12:56:49.869Z,72.57
2023-10-23T12:59:11.575Z,72.26
2023-10-23T13:01:33.458Z,72.23
2023-10-23T13:03:55.459Z,71.97
2023-10-23T13:06:18.860Z,71.84
2023-10-23T13:08:42.022Z,72.06
2023-10-23T13:11:03.875Z,72.21
2023-10-23T13:13:25.652Z,72.26
2023-10-23T13:15:47.455Z,72.35
2023-10-23T13:18:09.405Z,72.64
2023-10-23T13:21:27.667Z,72.69
2023-10-23T13:23:12.976Z,73.08
2023-10-23T13:25:36.057Z,73.17
2023-10-23T13:27:57.842Z,73.05
2023-10-23T13:30:19.669Z,72.84
2023-10-23T13:32:41.565Z,73.19
2023-10-23T13:35:05.547Z,72.65
2023-10-23T13:37:28.166Z,72.35
2023-10-23T13:39:49.905Z,72.38
2023-10-23T13:42:11.619Z,72.34
2023-10-23T13:44:34.019Z,72.70
2023-10-23T13:46:56.009Z,72.35
2023-10-23T13:49:17.861Z,72.49
2023-10-23T13:51:39.673Z,72.70
2023-10-23T13:54:01.595Z,72.47
2023-10-23T13:56:23.428Z,72.93
2023-10-23T13:58:46.275Z,72.68
2023-10-23T14:01:08.008Z,72.86
2023-10-23T14:03:30.106Z,73.09
2023-10-23T14:05:51.950Z,73.03
2023-10-23T14:08:13.687Z,73.10
2023-10-23T14:10:35.542Z,72.89
2023-10-23T14:12:57.900Z,72.95
2023-10-23T14:15:21.591Z,73.20
2023-10-23T14:17:43.542Z,73.15
2023-10-23T14:20:07.311Z,72.85
2023-10-23T14:22:29.249Z,72.76
2023-10-23T14:24:51.077Z,72.69
2023-10-23T14:27:13.007Z,72.67
2023-10-23T14:29:34.900Z,72.73
2023-10-23T14:31:56.704Z,72.64
2023-10-23T14:34:18.572Z,72.46
2023-10-23T14:36:40.405Z,72.18
2023-10-23T14:39:02.174Z,72.55
2023-10-23T14:41:23.969Z,72.86
2023-10-23T14:43:45.665Z,72.64
2023-10-23T14:46:14.442Z,72.99
2023-10-23T14:48:36.245Z,72.98
2023-10-23T14:50:58.407Z,73.12
2023-10-23T14:53:20.379Z,73.05
2023-10-23T14:55:42.937Z,73.09
2023-10-23T14:58:04.819Z,73.28
2023-10-23T15:00:26.894Z,73.25
2023-10-23T15:02:49.090Z,73.37
2023-10-23T15:05:10.923Z,73.55
2023-10-23T15:07:33.062Z,73.71
2023-10-23T15:09:55.928Z,73.79
2023-10-23T15:12:17.789Z,73.79
2023-10-23T15:14:39.595Z,74.05
2023-10-23T15:17:01.362Z,74.06
2023-10-23T15:19:23.381Z,74.23
2023-10-23T15:21:45.214Z,74.10
2023-10-23T15:24:10.916Z,74.43
2023-10-23T15:26:32.661Z,74.26
2023-10-23T15:28:54.451Z,74.38
2023-10-23T15:31:16.551Z,74.53
2023-10-23T15:33:38.253Z,74.51
2023-10-23T15:36:01.512Z,74.54
2023-10-23T15:38:26.672Z,74.57
2023-10-23T15:40:49.994Z,74.79
2023-10-23T15:43:11.705Z,74.80
2023-10-23T15:45:38.537Z,74.89
2023-10-23T15:48:00.960Z,74.99
2023-10-23T15:50:22.939Z,75.02
2023-10-23T15:52:44.729Z,75.25
2023-10-23T15:55:07.027Z,75.08
2023-10-23T15:57:28.765Z,75.20
2023-10-23T15:59:50.678Z,74.91
2023-10-23T16:02:12.631Z,75.17
2023-10-23T16:04:34.509Z,75.24
2023-10-23T16:06:56.358Z,75.12
2023-10-23T16:09:28.065Z,75.25
2023-10-23T16:11:50.739Z,75.30
2023-10-23T16:14:12.843Z,75.43
2023-10-23T16:16:35.851Z,75.34
2023-10-23T16:18:58.028Z,75.46
2023-10-23T16:21:19.950Z,75.39
2023-10-23T16:23:43.092Z,75.48
2023-10-23T16:26:05.245Z,75.41
2023-10-23T16:28:27.474Z,75.47
2023-10-23T16:30:50.053Z,75.63
2023-10-23T16:33:12.249Z,75.55
2023-10-23T16:35:38.143Z,75.65
2023-10-23T16:37:59.918Z,75.64
2023-10-23T16:40:22.348Z,75.65
2023-10-23T16:42:47.386Z,75.74
2023-10-23T16:45:09.800Z,75.86
2023-10-23T16:47:31.894Z,76.12
2023-10-23T16:49:54.700Z,76.00
2023-10-23T16:52:16.820Z,76.45
2023-10-23T16:54:38.855Z,76.47
2023-10-23T16:57:00.796Z,76.55
2023-10-23T16:59:22.514Z,76.60
2023-10-23T17:01:44.375Z,77.13
2023-10-23T17:04:06.645Z,77.28
2023-10-23T17:06:28.357Z,77.47
2023-10-23T17:08:50.233Z,77.54
2023-10-23T17:11:12.377Z,77.81
2023-10-23T17:13:34.336Z,78.13
2023-10-23T17:15:56.118Z,78.39
2023-10-23T17:18:18.006Z,78.82
2023-10-23T17:20:42.235Z,79.21
2023-10-23T17:23:04.612Z,79.49
2023-10-23T17:25:26.498Z,79.95
2023-10-23T17:27:50.695Z,80.11
2023-10-23T17:30:13.338Z,80.49
2023-10-23T17:32:36.352Z,80.76
2023-10-23T17:34:58.241Z,80.78
2023-10-23T17:37:19.985Z,81.03
2023-10-23T17:39:42.003Z,81.17
2023-10-23T17:42:04.815Z,80.93
2023-10-23T17:44:28.006Z,81.40
2023-10-23T17:46:49.823Z,81.70
2023-10-23T17:49:12.211Z,82.29
2023-10-23T17:51:35.476Z,82.58
2023-10-23T17:54:05.451Z,82.91
2023-10-23T17:56:27.968Z,82.77
2023-10-23T17:58:50.159Z,82.93
2023-10-23T18:01:14.216Z,83.18
2023-10-23T18:03:36.948Z,83.39
2023-10-23T18:06:00.044Z,83.71
2023-10-23T18:08:21.732Z,83.71
2023-10-23T18:10:43.510Z,84.06
2023-10-23T18:13:05.244Z,84.10
2023-10-23T18:15:27.044Z,83.88
2023-10-23T18:17:48.989Z,84.29
2023-10-23T18:20:11.865Z,84.26
2023-10-23T18:22:33.688Z,84.84
2023-10-23T18:24:56.142Z,84.88
2023-10-23T18:27:18.071Z,84.87
2023-10-23T18:29:39.886Z,84.72
2023-10-23T18:32:01.734Z,85.18
2023-10-23T18:34:23.513Z,84.96
2023-10-23T18:36:45.821Z,85.08
2023-10-23T18:39:07.689Z,85.12
2023-10-23T18:41:29.654Z,85.33
2023-10-23T18:43:51.441Z,85.51
2023-10-23T18:46:14.720Z,85.48
2023-10-23T18:48:37.305Z,85.64
2023-10-23T18:51:02.114Z,85.58
2023-10-23T18:53:23.892Z,85.23
2023-10-23T18:55:45.667Z,85.39
2023-10-23T18:58:07.389Z,85.39
2023-10-23T19:00:29.362Z,85.73
2023-10-23T19:02:52.497Z,85.57
2023-10-23T19:05:14.299Z,85.84
2023-10-23T19:07:36.505Z,85.86
2023-10-23T19:09:59.465Z,85.79
2023-10-23T19:12:21.248Z,85.72
2023-10-23T19:14:43.145Z,85.47
2023-10-23T19:17:06.322Z,85.72
2023-10-23T19:19:29.323Z,85.97
2023-10-23T19:21:51.018Z,86.01
2023-10-23T19:24:15.443Z,85.78
2023-10-23T19:26:37.570Z,85.66
2023-10-23T19:29:00.271Z,85.89
2023-10-23T19:31:26.135Z,85.92
2023-10-23T19:33:48.512Z,85.64
2023-10-23T19:36:11.800Z,86.00
2023-10-23T19:38:33.896Z,85.89
2023-10-23T19:41:02.505Z,85.81
2023-10-23T19:43:32.275Z,85.74
2023-10-23T19:45:55.960Z,86.03
2023-10-23T19:48:18.345Z,85.70
2023-10-23T19:50:47.490Z,85.86
2023-10-23T19:53:11.448Z,86.10
2023-10-23T19:55:43.129Z,85.78
2023-10-23T19:58:08.476Z,85.86
2023-10-23T20:00:30.917Z,85.82
2023-10-23T20:02:52.725Z,85.70
2023-10-23T20:05:14.492Z,85.66
2023-10-23T20:07:36.246Z,85.60
2023-10-23T20:09:58.014Z,85.49
2023-10-23T20:12:19.779Z,85.57
2023-10-23T20:14:41.663Z,85.77
2023-10-23T20:17:03.691Z,85.56
2023-10-23T20:19:25.621Z,85.65
2023-10-23T20:21:47.475Z,85.73
2023-10-23T20:24:09.294Z,85.60
2023-10-23T20:26:31.092Z,85.62
2023-10-23T20:28:52.837Z,85.64
2023-10-23T20:31:19.217Z,86.08
2023-10-23T20:33:41.531Z,85.72
2023-10-23T20:36:03.414Z,85.72
2023-10-23T20:38:25.329Z,86.07
2023-10-23T20:40:47.185Z,86.12
2023-10-23T20:43:08.979Z,86.16
2023-10-23T20:45:30.885Z,86.12
2023-10-23T20:47:52.617Z,86.34
2023-10-23T20:50:14.462Z,86.20
2023-10-23T20:52:36.297Z,86.10
2023-10-23T20:54:58.623Z,86.35
2023-10-23T20:57:20.458Z,86.43
2023-10-23T20:59:42.231Z,86.80
2023-10-23T21:02:04.150Z,86.92
2023-10-23T21:04:26.132Z,86.98
2023-10-23T21:06:47.907Z,86.97
2023-10-23T21:09:09.639Z,87.35
2023-10-23T21:11:33.316Z,87.23
2023-10-23T21:13:55.073Z,87.37
2023-10-23T21:16:16.974Z,88.11
2023-10-23T21:18:38.669Z,87.77
2023-10-23T21:21:00.601Z,88.06
2023-10-23T21:23:22.438Z,87.73
2023-10-23T21:25:44.258Z,88.18
2023-10-23T21:28:06.170Z,88.43
2023-10-23T21:30:27.999Z,88.46
2023-10-23T21:32:50.760Z,88.59
2023-10-23T21:35:12.538Z,88.93
2023-10-23T21:37:34.309Z,88.86
2023-10-23T21:39:56.248Z,88.91
2023-10-23T21:42:18.083Z,89.19
2023-10-23T21:44:39.928Z,89.41
2023-10-23T21:47:01.943Z,89.65
2023-10-23T21:49:23.733Z,89.56
2023-10-23T21:51:45.923Z,89.55
2023-10-23T21:54:08.348Z,89.66
2023-10-23T21:56:43.374Z,90.09
2023-10-23T21:59:19.030Z,89.81
2023-10-23T22:01:41.646Z,89.98
2023-10-23T22:04:04.073Z,89.55
2023-10-23T22:06:26.355Z,90.13
2023-10-23T22:08:48.703Z,90.16
2023-10-23T22:11:11.903Z,90.09
2023-10-23T22:13:34.650Z,90.17
2023-10-23T22:15:56.594Z,90.02
2023-10-23T22:18:18.528Z,89.72
2023-10-23T22:20:40.425Z,89.84
2023-10-23T22:23:02.224Z,89.93
2023-10-23T22:25:23.917Z,89.90
2023-10-23T22:27:45.649Z,89.79
2023-10-23T22:30:08.284Z,90.06
2023-10-23T22:32:29.961Z,90.24
2023-10-23T22:34:51.695Z,90.22
2023-10-23T22:38:05.637Z,90.32
2023-10-23T22:39:55.283Z,90.26
2023-10-23T22:42:17.014Z,89.85
2023-10-23T22:44:39.679Z,89.95
2023-10-23T22:47:02.052Z,89.64
2023-10-23T22:49:24.247Z,89.99
2023-10-23T22:51:46.332Z,89.57
2023-10-23T22:54:08.861Z,89.80
2023-10-23T22:56:32.633Z,89.48
2023-10-23T22:59:04.279Z,89.29
2023-10-23T23:01:26.531Z,89.05
2023-10-23T23:03:52.275Z,89.30
2023-10-23T23:06:18.801Z,89.40
2023-10-23T23:08:43.664Z,89.61
2023-10-23T23:11:06.310Z,89.70
2023-10-23T23:13:28.396Z,89.70
2023-10-23T23:15:52.599Z,89.68
2023-10-23T23:18:20.065Z,89.52
2023-10-23T23:20:44.911Z,89.78
2023-10-23T23:23:06.691Z,89.31
2023-10-23T23:25:28.431Z,88.99
2023-10-23T23:27:50.245Z,89.29
2023-10-23T23:30:12.237Z,89.22
2023-10-23T23:32:34.084Z,89.33
2023-10-23T23:34:56.096Z,89.54
2023-10-23T23:37:17.905Z,89.77
2023-10-23T23:39:41.084Z,89.68
2023-10-23T23:42:03.321Z,89.67
2023-10-23T23:44:25.070Z,89.15
2023-10-23T23:46:46.854Z,89.34
2023-10-23T23:49:09.140Z,89.20
2023-10-23T23:51:31.196Z,89.14
2023-10-23T23:53:52.901Z,89.23
2023-10-23T23:56:14.728Z,89.28
2023-10-23T23:58:36.601Z,89.53
